X  Fermer Données météorologiques d'aviation de Metar     LGEL Elefsis Airport
Température
79°F Température
57°F Point de rosée
48% Humidité



Vent
0 MPH
0 KM/H
0 M/S
0 KTS



Calme
N
Conditions actuelles

Clair Clair
Pression 1010.84 (hPa) - 29.85 (inHg)
Visibilité 6 (mile) - 9.7 (km)
Aéroport
Code de l'aéroport LGEL

Emplacement: Elefsis Airport
Distance: 77 (mi)

Metar:
LGEL 152020Z 00000KT CAVOK 26/14 Q1011

Temps: 15-06-2024 23:20 EEST